Tiempo atmosférico en la estación meteorológica de Motril, Granada (3 m.)



Fecha
DESCASC
Temp. máxima en grados centígrados (hora)
DESCASC
Temp. mínima en grados centígrados (hora)
DESCASC
Temp. media en grados centígrados
DESCASC
Racha de viento máxima en m/sg (hora)
DESCASC
Velocidad máxima media en intervalos de 10 minutos(hora)
DESCASC
Precipitaciones diarias en mm
DESCASC
Precipitaciones de 00:00 a 06:00 en mm
DESCASC
Precipitaciones de 06:00 a 12:00 en mm
DESCASC
Precipitaciones de 12:00 a 18:00 en mm
DESCASC
Precipitaciones de 18:00 a 24:00 en mm
DESCASC
14-12-2019 20.9 (11:50) 14.4 (23:00) 17.6 15.28 (10:00) 7.78 (05:10) 0 0 0 0 0
13-12-2019 20.3 (15:20) 15.3 (03:20) 17.8 22.78 (17:30) 10.56 (17:20) 0 0 0 0 0
12-12-2019 17.7 (14:00) 13.4 (06:40) 15.6 17.5 (12:00) 8.89 (16:00) 0 0 0 0 0
11-12-2019 22.9 (14:50) 9.6 (00:00) 16.3 17.78 (19:00) 9.17 (19:00) 0 0 0 0 0
10-12-2019 22.7 (10:50) 10.5 (00:00) 16.6 4.72 (12:30) 3.33 (12:30) 0 0 0 0 0
09-12-2019 22.1 (15:30) 13.6 (00:00) 17.9 11.11 (03:20) 6.39 (03:40) 0 0 0 0 0
08-12-2019 17.5 (22:50) 11.7 (00:00) 14.6 7.78 (22:50) 4.44 (22:50) 0 0 0 0 0
07-12-2019 20.4 (10:30) 12 (00:00) 16.2 7.22 (14:00) 3.61 (13:40) 0 0 0 0 0
06-12-2019 23.2 (12:10) 11.6 (00:00) 17.4 12.22 (17:00) 8.33 (17:10) 0 0 0 0 0
05-12-2019 19.5 (10:40) 11.9 (00:00) 15.7 10.83 (15:50) 7.22 (15:20) 0 0 0 0 0
04-12-2019 18.6 (11:00) 11.4 (00:00) 15 11.39 (08:00) 6.39 (08:00) 0 0 0 0 0
03-12-2019 16.4 (13:10) 11.4 (00:00) 13.9 6.94 (12:00) 3.89 (14:00) 4.6 1.6 3 0 0
02-12-2019 17.4 (10:50) 11.2 (00:00) 14.3 10.56 (15:40) 7.22 (16:10) 1.4 0.8 0.5 0 0.1
01-12-2019 18.2 (10:30) 12.7 (00:00) 15.5 10.83 (13:50) 5.56 (12:40) 4.9 0 0 0 4.9
30-11-2019 20.4 (10:20) 10.6 (00:00) 15.5 5.56 (23:40) 3.33 (23:00) 0 0 0 0 0
29-11-2019 20.4 (10:30) 11.1 (00:00) 15.8 6.11 (00:30) 3.61 (13:00) 0 0 0 0 0
28-11-2019 20.2 (10:30) 13.3 (00:00) 16.8 9.72 (08:50) 4.72 (08:50) 0 0 0 0 0
27-11-2019 20.7 (17:50) 15.4 (00:00) 18.1 13.06 (14:50) 6.67 (14:50) 0 0 0 0 0
26-11-2019 21.9 (10:30) 14.8 (00:00) 18.3 8.89 (10:10) 5 (17:50) 0 0 0 0 0
25-11-2019 19.8 (10:50) 13.1 (00:00) 16.4 10.56 (16:20) 6.39 (14:20) 0 0 0 0 0
24-11-2019 21.4 (15:20) 12.3 (00:00) 16.8 14.17 (06:50) 8.89 (07:00) 0 0 0 0 0
23-11-2019 18.9 (13:40) 14.5 (00:00) 16.7 16.67 (12:40) 7.78 (14:30) 0 0 0 0 0
22-11-2019 16.9 (23:20) 13.6 (00:00) 15.3 14.17 (23:59) 5.56 (21:40) 65.3 9.1 28.3 22 5.9
21-11-2019 15.6 (16:20) 10.6 (00:00) 13.1 5.56 (20:20) 2.22 (20:20) 18.6 0 1.6 2.8 14.2
20-11-2019 19.5 (10:20) 9.6 (00:00) 14.6 7.22 (14:20) 3.33 (14:20) 0.4 0 0 0.2 0.2
19-11-2019 19.4 (11:00) 11.1 (00:00) 15.3 8.33 (04:40) 4.44 (04:40) 0 0 0 0 0
18-11-2019 -- (--) -- (--) -- 13.61 (01:30) 8.06 (10:00) 0 0 0 0 0
17-11-2019 16.1 (14:10) 10.2 (00:00) 13.2 18.61 (21:30) 6.94 (21:20) 0 0 0 0 0
16-11-2019 17.2 (11:50) 9.6 (00:00) 13.4 13.89 (20:10) 5.83 (07:40) 0 0 0 0 0

Gráficas

Temp. máximas Temp. mínimas Temp. medias Precipitaciones Rachas de viento máximas Velocidades máximas media en intervalos de 10 minutos

Datos horarios

Fecha y hora oficial Temperatura (ºC) Velocidad del viento (km/h) Dirección del viento Racha (km/h) Dirección de racha Precipitación (mm) Presión (hPa) Tendencia (hPa) Humedad (%)
2019-12-15 23:00:00 11 0 Calma 6 Nordeste 0 1011.6 -0.9 92
2019-12-15 22:00:00 11.2 2 Norte 6 Norte 0 1011.9 -0.6 92
2019-12-15 21:00:00 12.1 4 Nordeste 9 Nordeste 0 1012.1 -0.4 89
2019-12-15 20:00:00 12.3 2 Nordeste 5 Este 0 1012.5 -0.2 86
2019-12-15 19:00:00 13.7 2 Norte 4 Nordeste 0 1012.5 -0.3 80
2019-12-15 18:00:00 14.7 0 Calma 5 Sudoeste 0 1012.5 -0.6 76
2019-12-15 17:00:00 15.5 4 Sur 9 Sur 0 1012.7 -1.2 74
2019-12-15 16:00:00 16.2 6 Sur 9 Sur 0 1012.8 -2 70
2019-12-15 15:00:00 17.6 6 Sur 11 Sur 0 1013.1 -2.3 67
2019-12-15 14:00:00 17.8 5 Sur 12 Sudoeste 0 1013.9 -2.2 68
2019-12-15 13:00:00 16.3 8 Sur 12 Sudoeste 0 1014.8 -0.9 70
2019-12-15 12:00:00 18.7 6 Sudeste 7 Sudeste 0 1015.4 0.1 61
2019-12-15 11:00:00 17.4 4 Sur 6 Sur 0 1016.1 0.9 58
2019-12-15 10:00:00 14.4 4 Sudoeste 9 Sudoeste 0 1015.7 0.8 70
2019-12-15 09:00:00 11.6 0 Calma 4 Nordeste 0 1015.3 0.5 76
2019-12-15 08:00:00 11 2 Sudeste 6 Oeste 0 1015.2 0.1 76
2019-12-15 07:00:00 11.8 2 Noroeste 11 Noroeste 0 1014.9 -0.2 73
2019-12-15 06:00:00 12 4 Noroeste 10 Noroeste 0 1014.8 -0.6 73
2019-12-15 05:00:00 12 0 Calma 10 Nordeste 0 1015.1 -0.8 73
2019-12-15 04:00:00 13 5 Nordeste 12 Nordeste 0 1015.1 -1 70
2019-12-15 03:00:00 12.9 3 Nordeste 9 Norte 0 1015.4 -1 70
2019-12-15 02:00:00 14.1 4 Norte 13 Noroeste 0 1015.9 -0.3 66
2019-12-15 01:00:00 15.5 5 Noroeste 23 Norte 0 1016.1 -0.4 60
2019-12-15 00:00:00 14.7 3 Nordeste 27 Norte 0 1016.4 0.4 65
2019-12-14 23:00:00 15.2 6 Nordeste 23 Nordeste 0 1016.2 0.3 65
2019-12-14 22:00:00 15.5 3 Este 18 Norte 0 1016.5 1 65
2019-12-14 21:00:00 17 6 Nordeste 33 Norte 0 1016 0.4 57
2019-12-14 20:00:00 17.7 13 Norte 35 Norte 0 1015.9 0.5 57
2019-12-14 19:00:00 15.5 4 Nordeste 17 Este 0 1015.5 0 81
2019-12-14 18:00:00 16.4 0 Calma 15 Oeste 0 1015.6 0.4 77
2019-12-14 17:00:00 17.3 8 Oeste 21 Oeste 0 1015.4 -0.2 75
2019-12-14 16:00:00 17.8 11 Oeste 36 Oeste 0 1015.5 -0.6 75
2019-12-14 15:00:00 17.6 15 Sudoeste 26 Oeste 0 1015.2 -1.4 77
2019-12-14 14:00:00 17.5 13 Sudoeste 23 Oeste 0 1015.6 -1.4 74
2019-12-14 13:00:00 19.4 8 Oeste 38 Norte 0 1016.1 -0.4 58
2019-12-14 12:00:00 20.2 17 Norte 48 Norte 0 1016.6 0.5 50
2019-12-14 11:00:00 19 24 Norte 53 Norte 0 1017 1.9 54
2019-12-14 10:00:00 17.7 25 Norte 55 Norte 0 1016.5 1.3 56
2019-12-14 09:00:00 17.2 14 Norte 45 Noroeste 0 1016.1 0.9 56
2019-12-14 08:00:00 17 18 Norte 48 Norte 0 1015.1 -0.2 58
2019-12-14 07:00:00 17.1 14 Noroeste 50 Norte 0 1015.2 -0.6 57
2019-12-14 06:00:00 17.2 17 Norte 50 Norte 0 1015.2 -1 58
2019-12-14 05:00:00 17.5 24 Norte 48 Norte 0 1015.3 -1 55
2019-12-14 04:00:00 17.6 9 Noroeste 36 Norte 0 1015.8 -1.6 54
2019-12-14 03:00:00 17.3 8 Norte 28 Noroeste 0 1016.2 -0.8 55
2019-12-14 02:00:00 17.7 9 Noroeste 28 Noroeste 0 1016.3 -0.6 55
2019-12-14 01:00:00 17.7 9 Oeste 25 Oeste 0 1017.4 0 55
2019-12-14 00:00:00 18.5 12 Noroeste 36 Noroeste 0 1017 0.5 53
2019-12-13 23:00:00 18 12 Noroeste 37 Noroeste 0 1016.9 0.8 54
2019-12-13 22:00:00 19.2 8 Noroeste 44 Norte 0 1017.4 1.5 53
2019-12-13 21:00:00 19.4 14 Noroeste 45 Noroeste 0 1016.5 0.7 51
2019-12-13 20:00:00 19.4 24 Oeste 53 Noroeste 0 1016.1 0.5 54
2019-12-13 19:00:00 19.1 26 Noroeste 60 Noroeste 0 1015.9 -0.3 56
2019-12-13 18:00:00 19.4 33 Noroeste 82 Noroeste 0 1015.8 -1 55
2019-12-13 17:00:00 19.4 35 Noroeste 64 Noroeste 0 1015.6 -1.8 55
2019-12-13 16:00:00 19.7 29 Noroeste 63 Oeste 0 1016.2 -2.2 54
2019-12-13 15:00:00 20 26 Noroeste 62 Noroeste 0 1016.8 -2.3 54
2019-12-13 14:00:00 19.8 28 Noroeste 56 Noroeste 0 1017.4 -2.1 55
2019-12-13 13:00:00 19.4 23 Noroeste 56 Oeste 0 1018.4 -0.4 58
2019-12-13 12:00:00 18.4 29 Oeste 50 Noroeste 0 1019.1 0.7 60
2019-12-13 11:00:00 18.6 19 Oeste 37 Oeste 0 1019.5 1.5 60
2019-12-13 10:00:00 18 18 Oeste 41 Oeste 0 1018.8 0.9 65
2019-12-13 09:00:00 16.7 21 Oeste 41 Sudoeste 0 1018.4 0.7 80
2019-12-13 08:00:00 16.9 12 Oeste 24 Sudoeste 0 1018 0 77
2019-12-13 07:00:00 16.3 10 Oeste 25 Sudoeste 0 1017.9 -0.5 80
2019-12-13 06:00:00 15.9 11 Oeste 28 Oeste 0 1017.7 -0.8 81
2019-12-13 05:00:00 15.8 16 Oeste 25 Oeste 0 1018 -0.9 80
2019-12-13 04:00:00 15.5 10 Oeste 19 Oeste 0 1018.4 -0.3 77
2019-12-13 03:00:00 15.6 9 Oeste 24 Oeste 0 1018.5 0.2 75
2019-12-13 02:00:00 15.7 12 Oeste 21 Oeste 0 1018.9 -0.1 71
2019-12-13 01:00:00 15.8 10 Oeste 28 Oeste 0 1018.7 -0.3 69
2019-12-13 00:00:00 15.9 14 Oeste 30 Oeste 0 1018.3 -0.8 65
2019-12-12 23:00:00 15.8 16 Oeste 45 Noroeste 0 1019 -0.5 62
2019-12-12 22:00:00 16.2 18 Oeste 46 Oeste 0 1019 -0.6 58
2019-12-12 21:00:00 15.7 14 Noroeste 32 Noroeste 0 1019.1 -0.3 58
2019-12-12 20:00:00 15.8 13 Noroeste 41 Oeste 0 1019.5 0 55
2019-12-12 19:00:00 15.7 17 Noroeste 54 Oeste 0 1019.6 0.9 54
2019-12-12 18:00:00 16 26 Oeste 48 Oeste 0 1019.4 -0.2 51
2019-12-12 17:00:00 16.1 16 Noroeste 56 Noroeste 0 1019.5 0.4 51
2019-12-12 16:00:00 16.6 32 Noroeste 59 Noroeste 0 1018.7 -1.5 48
2019-12-12 15:00:00 17.3 26 Noroeste 57 Noroeste 0 1019.6 -1.7 45
2019-12-12 14:00:00 17.5 24 Noroeste 57 Noroeste 0 1019.1 -1.9 45
2019-12-12 13:00:00 16.7 27 Noroeste 59 Noroeste 0 1020.2 -1.3 46
2019-12-12 12:00:00 16.4 30 Noroeste 63 Oeste 0 1021.3 -0.1 46
2019-12-12 11:00:00 15.1 21 Noroeste 47 Noroeste 0 1021 -0.3 49
2019-12-12 10:00:00 14.8 19 Noroeste 48 Norte 0 1021.5 -0.2 49
2019-12-12 09:00:00 14.3 14 Norte 36 Norte 0 1021.4 0.1 50
2019-12-12 08:00:00 13.6 13 Norte 40 Norte 0 1021.3 0.2 54
2019-12-12 07:00:00 13.5 21 Norte 45 Norte 0 1021.7 0.3 58
2019-12-12 06:00:00 13.7 21 Norte 41 Norte 0 1021.3 -0.4 58
2019-12-12 05:00:00 14.4 18 Norte 37 Norte 0 1021.1 -0.6 55
2019-12-12 04:00:00 14.9 13 Norte 33 Norte 0 1021.4 -0.6 55
2019-12-12 03:00:00 14.6 17 Norte 35 Norte 0 1021.7 0.2 58
2019-12-12 02:00:00 14.6 20 Norte 46 Norte 0 1021.7 0.1 58
2019-12-12 01:00:00 15.1 25 Norte 45 Norte 0 1022 1.2 56
2019-12-12 00:00:00 15.5 23 Norte 47 Norte 0 1021.5 1 55
2019-12-11 23:00:00 15.9 19 Norte 44 Norte 0 1021.6 0.8 53
2019-12-11 22:00:00 16.6 15 Noroeste 49 Noroeste 0 1020.8 1.4 50
2019-12-11 21:00:00 17.2 9 Oeste 31 Oeste 0 1020.5 0.9 50
2019-12-11 20:00:00 17.4 12 Oeste 55 Noroeste 0 1020.8 1.3 51
2019-12-11 19:00:00 19.3 33 Noroeste 64 Noroeste 0 1019.4 0.2 50
2019-12-11 18:00:00 19.5 26 Oeste 44 Oeste 0 1019.6 1.1 43
2019-12-11 17:00:00 20.2 19 Noroeste 46 Noroeste 0 1019.5 0.5 36
2019-12-11 16:00:00 21.2 18 Noroeste 49 Noroeste 0 1019.2 -0.5 30
2019-12-11 15:00:00 21.9 24 Noroeste 46 Noroeste 0 1018.5 -1.9 28
2019-12-11 14:00:00 22.8 14 Noroeste 36 Noroeste 0 1019 -2.4 33
2019-12-11 13:00:00 19.7 12 Oeste 33 Oeste 0 1019.7 -1.4 56
2019-12-11 12:00:00 19.1 11 Oeste 20 Oeste 0 1020.4 -0.4 57
2019-12-11 11:00:00 18.2 6 Sudeste 10 Sudeste 0 1021.4 0.9 70
2019-12-11 10:00:00 15.7 4 Norte 8 Norte 0 1021.1 1.1 75
2019-12-11 09:00:00 13.6 2 Este 13 Norte 0 1020.8 0.8 77
2019-12-11 08:00:00 13.7 5 Oeste 21 Oeste 0 1020.5 0.1 83
2019-12-11 07:00:00 13.9 6 Oeste 13 Norte 0 1020 -0.9 64
2019-12-11 06:00:00 12 2 Sur 14 Sudoeste 0 1020 -1.5 77
2019-12-11 05:00:00 10.7 2 Nordeste 10 Oeste 0 1020.4 -1.2 80
2019-12-11 04:00:00 10.2 3 Noroeste 9 Oeste 0 1020.9 -1.2 77
2019-12-11 03:00:00 11.7 5 Oeste 10 Oeste 0 1021.5 -1.3 85
2019-12-11 02:00:00 10.1 0 Calma 6 Nordeste 0 1021.6 -1.2 83
2019-12-11 01:00:00 11.2 4 Nordeste 8 Nordeste 0 1022.1 -0.9 83
2019-12-11 00:00:00 10.7 4 Norte 8 Norte 0 1022.8 -0.3 87
2019-12-10 23:00:00 11.4 3 Norte 11 Norte 0 1022.8 -0.4 86
2019-12-10 22:00:00 11.4 3 Noroeste 7 Noroeste 0 1023 -0.1 91
2019-12-10 21:00:00 12.2 0 Calma 5 Nordeste 0 1023.1 -0.2 96
2019-12-10 20:00:00 13.1 2 Norte 5 Nordeste 0 1023.2 0.4 95
2019-12-10 19:00:00 14.6 3 Norte 11 Oeste 0 1023.1 0.5 94
2019-12-10 18:00:00 15.5 7 Oeste 12 Oeste 0 1023.3 0.2 90
2019-12-10 17:00:00 17.6 3 Sur 13 Sudoeste 0 1022.8 -1.3 77
2019-12-10 16:00:00 17.5 7 Sudoeste 15 Sudoeste 0 1022.6 -2.1 83
2019-12-10 15:00:00 19 4 Sudoeste 13 Sur 0 1023.1 -2.1 73
2019-12-10 14:00:00 17.4 7 Sudoeste 14 Sudoeste 0 1024.1 -1.9 86
2019-12-10 13:00:00 17.4 9 Sudoeste 17 Sur 0 1024.7 -1.1 81
2019-12-10 12:00:00 18.1 7 Sur 12 Sudoeste 0 1025.2 -0.2 69
2019-12-10 11:00:00 19.7 3 Sudoeste 5 Sudoeste 0 1026 0.9 46
2019-12-10 10:00:00 17.9 0 Calma 7 Noroeste 0 1025.8 1.2 58
2019-12-10 09:00:00 13 3 Nordeste 6 Noroeste 0 1025.4 0.7 76
2019-12-10 08:00:00 10.8 4 Norte 6 Norte 0 1025.1 0.1 80
2019-12-10 07:00:00 11.9 2 Nordeste 6 Nordeste 0 1024.6 0.1 81
2019-12-10 06:00:00 13.6 2 Noroeste 9 Noroeste 0 1024.7 -0.1 92
2019-12-10 05:00:00 13.8 0 Calma 15 Sudeste 0 1025 0.1 85
2019-12-10 04:00:00 15.1 3 Sur 11 Sudoeste 0 1024.5 -0.8 74
2019-12-10 03:00:00 15.1 0 Calma 12 Noroeste 0 1024.8 -0.4 65
2019-12-10 02:00:00 14.5 0 Calma 7 Sur 0 1024.9 -0.3 94
2019-12-10 01:00:00 14.5 4 Sudeste 10 Norte 0 1025.3 0.1 93
2019-12-10 00:00:00 14.1 4 Nordeste 7 Nordeste 0 1025.2 0 93
2019-12-09 23:00:00 13.8 2 Sudeste 8 Este 0 1025.2 0.1 93
2019-12-09 22:00:00 14.3 0 Calma 6 Norte 0 1025.2 0.5 93
2019-12-09 21:00:00 14.3 2 Nordeste 6 Nordeste 0 1025.2 0.5 95
2019-12-09 20:00:00 14.7 0 Calma 4 Este 0 1025.1 0.8 96
2019-12-09 19:00:00 15.5 3 Norte 8 Oeste 0 1024.7 0.3 95
2019-12-09 18:00:00 16.3 5 Oeste 13 Sudoeste 0 1024.7 0.2 94
2019-12-09 17:00:00 20.5 0 Calma 6 Sur 0 1024.3 -0.6 63
2019-12-09 16:00:00 20 4 Sur 6 Sur 0 1024.4 -0.7 73
2019-12-09 15:00:00 20.6 4 Sudeste 11 Sudoeste 0 1024.5 -1.2 77
2019-12-09 14:00:00 17.5 8 Sudoeste 18 Sudeste 0 1024.9 -0.8 88
2019-12-09 13:00:00 19.3 12 Sudeste 17 Sudeste 0 1025.1 0 76
2019-12-09 12:00:00 18.7 7 Sur 16 Sudeste 0 1025.7 1.7 73
2019-12-09 11:00:00 19.5 7 Sudeste 12 Este 0 1025.7 2 69
2019-12-09 10:00:00 20 4 Nordeste 11 Sudeste 0 1025.1 2.1 58
2019-12-09 09:00:00 17.1 4 Sudeste 13 Sur 0 1024 1.7 64
2019-12-09 08:00:00 16 3 Norte 15 Sur 0 1023.7 1.5 61
2019-12-09 07:00:00 17.1 8 Norte 34 Norte 0 1023 0.8 58
2019-12-09 06:00:00 17.5 17 Norte 35 Norte 0 1022.3 0.1 56
2019-12-09 05:00:00 17.3 18 Norte 40 Norte 0 1022.2 -0.3 57
2019-12-09 04:00:00 17.7 19 Norte 40 Nordeste 0 1022.2 -0.4 55
2019-12-09 03:00:00 17.2 9 Norte 31 Norte 0 1022.2 -0.9 56
2019-12-09 02:00:00 17.3 2 Sudoeste 14 Noroeste 0 1022.5 0 58
2019-12-09 01:00:00 16 3 Noroeste 11 Noroeste 0 1022.6 -0.1 69
2019-12-09 00:00:00 15.4 3 Noroeste 16 Norte 0 1023.1 0.4 76
2019-12-08 23:00:00 17.2 14 Norte 28 Norte 0 1022.5 -0.5 59
2019-12-08 22:00:00 16 4 Sudoeste 12 Norte 0 1022.7 0 91
2019-12-08 21:00:00 14.1 0 Calma 9 Nordeste 0 1022.7 0 96
2019-12-08 20:00:00 14.3 3 Noroeste 6 Oeste 0 1023 0.2 95
2019-12-08 19:00:00 15.2 0 Calma 6 Sudoeste 0 1022.7 -0.1 92
2019-12-08 18:00:00 15.3 2 Noroeste 13 Oeste 0 1022.7 0 88
2019-12-08 17:00:00 16.2 7 Oeste 17 Oeste 0 1022.8 -0.5 83
2019-12-08 16:00:00 16.3 8 Sudoeste 21 Oeste 0 1022.8 -1.2 86
2019-12-08 15:00:00 16.3 9 Oeste 21 Sudoeste 0 1022.7 -2.1 85
2019-12-08 14:00:00 16.5 9 Sudoeste 23 Sudoeste 0 1023.3 -1.6 84
2019-12-08 13:00:00 15.7 12 Sudoeste 26 Sudoeste 0 1024 -0.6 85
2019-12-08 12:00:00 15.6 11 Oeste 24 Sudoeste 0 1024.8 0.9 83
2019-12-08 11:00:00 15.4 10 Oeste 23 Sudoeste 0 1024.9 1.1 83
2019-12-08 10:00:00 14.8 9 Oeste 23 Noroeste 0 1024.6 1.3 68
2019-12-08 09:00:00 13.5 9 Noroeste 20 Noroeste 0 1023.9 1 71
2019-12-08 08:00:00 12.3 6 Noroeste 19 Oeste 0 1023.8 0.8 75
2019-12-08 07:00:00 13.1 12 Noroeste 23 Noroeste 0 1023.3 0 74
2019-12-08 06:00:00 13 10 Oeste 18 Noroeste 0 1022.9 -0.9 76
2019-12-08 05:00:00 12.4 13 Noroeste 22 Noroeste 0 1023 -1 77
2019-12-08 04:00:00 12.8 10 Noroeste 20 Noroeste 0 1023.3 -0.8 83
2019-12-08 03:00:00 12 4 Noroeste 8 Noroeste 0 1023.8 -0.6 95
2019-12-08 02:00:00 12 0 Calma 6 Nordeste 0 1024 -0.3 98
2019-12-08 01:00:00 12.7 5 Nordeste 7 Nordeste 0 1024.1 0.2 98
2019-12-08 00:00:00 12 0 Calma 7 Nordeste 0 1024.4 1.1 96
2019-12-07 23:00:00 13.2 0 Calma 4 Norte 0 1024.3 1.4 94
2019-12-07 22:00:00 13.9 3 Norte 8 Noroeste 0 1023.9 1.5 93
2019-12-07 21:00:00 15.2 6 Oeste 11 Oeste 0 1023.3 1.4 90
2019-12-07 20:00:00 15.5 6 Oeste 12 Oeste 0 1022.9 1.5 89
2019-12-07 19:00:00 15.7 4 Oeste 12 Sudoeste 0 1022.4 1.5 88
2019-12-07 18:00:00 15.6 6 Sudoeste 12 Oeste 0 1021.9 1.3 86
2019-12-07 17:00:00 16.4 6 Sudoeste 16 Sudoeste 0 1021.4 0.6 81
2019-12-07 16:00:00 16.4 11 Sudoeste 25 Oeste 0 1020.9 -0.7 86
2019-12-07 15:00:00 16.1 13 Sudoeste 25 Oeste 0 1020.6 -1.4 85
2019-12-07 14:00:00 16.7 13 Sudoeste 26 Oeste 0 1020.8 -1.3 81
2019-12-07 13:00:00 17.2 10 Sudoeste 17 Sudoeste 0 1021.6 0.2 85
2019-12-07 12:00:00 16.9 11 Sur 14 Sur 0 1022 1.3 87
2019-12-07 11:00:00 19.5 6 Sudeste 8 Sudeste 0 1022.1 2.2 56
2019-12-07 10:00:00 19.5 2 Este 7 Oeste 0 1021.4 2 58
2019-12-07 09:00:00 15.2 5 Noroeste 9 Noroeste 0 1020.7 1.7 64
2019-12-07 08:00:00 15.7 2 Oeste 13 Norte 0 1019.9 1.1 60
2019-12-07 07:00:00 15.9 7 Norte 17 Nordeste 0 1019.4 0.4 60
2019-12-07 06:00:00 16.1 3 Nordeste 18 Norte 0 1019 -0.3 59
2019-12-07 05:00:00 16.4 10 Norte 20 Norte 0 1018.8 -0.7 60
2019-12-07 04:00:00 14.3 0 Calma 3 Sudeste 0 1019 -0.7 83
2019-12-07 03:00:00 14.5 0 Calma 8 Noroeste 0 1019.3 -0.4 88
2019-12-07 02:00:00 14.7 0 Calma 6 Noroeste 0 1019.5 0.3 91
2019-12-07 01:00:00 14.6 0 Calma 7 Norte 0 1019.7 0.6 93
2019-12-07 00:00:00 14.4 4 Norte 8 Nordeste 0 1019.7 0.8 89
2019-12-06 23:00:00 15 4 Nordeste 6 Nordeste 0 1019.2 0.9 86
2019-12-06 22:00:00 15.5 0 Calma 4 Noroeste 0 1019.1 1.3 83
2019-12-06 21:00:00 15.8 2 Norte 5 Este 0 1018.9 1.6 80
2019-12-06 20:00:00 16.1 3 Este 16 Nordeste 0 1018.3 1.6 77
2019-12-06 19:00:00 16.3 5 Este 31 Este 0 1017.8 1.5 76
2019-12-06 18:00:00 16.8 24 Este 42 Este 0 1017.3 1.1 76
2019-12-06 17:00:00 17.3 30 Este 44 Este 0 1016.7 0 72
2019-12-06 16:00:00 19.4 16 Este 32 Este 0 1016.3 -1.1 64
2019-12-06 15:00:00 19.7 21 Este 34 Este 0 1016.2 -1.7 59
2019-12-06 14:00:00 19.7 19 Este 31 Este 0 1016.7 -1.4 57
2019-12-06 13:00:00 20.4 5 Sudoeste 12 Noroeste 0 1017.4 -0.1 54
2019-12-06 12:00:00 22.3 0 Calma 16 Sur 0 1017.9 1 49
2019-12-06 11:00:00 17.5 8 Sudoeste 16 Sur 0 1018.1 1.7 66
2019-12-06 10:00:00 16.9 8 Sur 9 Sur 0 1017.5 1.6 61
2019-12-06 09:00:00 14.4 4 Nordeste 9 Nordeste 0 1016.9 1.6 66
2019-12-06 08:00:00 11.7 2 Este 10 Norte 0 1016.4 1.4 74
2019-12-06 07:00:00 12.4 4 Nordeste 9 Nordeste 0 1015.9 1 73
2019-12-06 06:00:00 12.7 3 Sudeste 6 Este 0 1015.3 0.7 76
2019-12-06 05:00:00 14 4 Noroeste 9 Norte 0 1015 0.5 70
2019-12-06 04:00:00 13.5 0 Calma 10 Norte 0 1014.9 0.1 77
2019-12-06 03:00:00 13.5 0 Calma 8 Norte 0 1014.6 -0.4 77
2019-12-06 02:00:00 12.7 5 Norte 9 Norte 0 1014.5 -0.3 86
2019-12-06 01:00:00 13.7 0 Calma 11 Oeste 0 1014.8 0 85
2019-12-06 00:00:00 13.4 4 Oeste 9 Noroeste 0 1015 0.2 85
2019-12-05 23:00:00 12.4 2 Noroeste 8 Norte 0 1014.8 0.3 91
2019-12-05 22:00:00 12.9 0 Calma 6 Nordeste 0 1014.8 1 90
2019-12-05 21:00:00 13.4 4 Norte 7 Norte 0 1014.8 1.5 89
2019-12-05 20:00:00 14.1 3 Norte 8 Este 0 1014.5 1.6 81
2019-12-05 19:00:00 15.1 6 Este 26 Este 0 1013.8 1.3 76
2019-12-05 18:00:00 15.8 17 Este 26 Este 0 1013.3 1.2 75
2019-12-05 17:00:00 16.6 16 Este 32 Este 0 1012.9 0.3 73
2019-12-05 16:00:00 16.6 22 Este 39 Este 0 1012.5 -0.6 70
2019-12-05 15:00:00 17.2 24 Este 36 Este 0 1012.1 -1.4 69
2019-12-05 14:00:00 16.7 21 Este 35 Este 0 1012.6 -0.9 70
2019-12-05 13:00:00 16.1 24 Este 33 Este 0 1013.1 0.3 73
2019-12-05 12:00:00 16 18 Este 32 Este 0 1013.5 2 74
2019-12-05 11:00:00 16.5 15 Este 23 Este 0 1013.5 2.6 68
2019-12-05 10:00:00 14.7 5 Nordeste 11 Este 0 1012.8 2.5 65
2019-12-05 09:00:00 13.2 0 Calma 10 Nordeste 0 1011.5 1.7 68
2019-12-05 08:00:00 12.8 5 Nordeste 10 Este 0 1010.9 1.6 68
2019-12-05 07:00:00 13.2 2 Noroeste 8 Noroeste 0 1010.3 1.3 67
2019-12-05 06:00:00 13.5 5 Norte 15 Norte 0 1009.8 0.8 65
2019-12-05 05:00:00 14.2 12 Norte 29 Norte 0 1009.3 0.1 64
2019-12-05 04:00:00 13.9 14 Norte 27 Norte 0 1009 0 65
2019-12-05 03:00:00 13.4 5 Norte 19 Norte 0 1009 0.3 67
2019-12-05 02:00:00 12.5 4 Oeste 14 Oeste 0 1009.2 0.9 71
2019-12-05 01:00:00 13.6 5 Oeste 12 Oeste 0 1009 1.1 67
2019-12-05 00:00:00 13.5 4 Oeste 10 Oeste 0 1008.7 1.4 68
2019-12-04 23:00:00 14.4 3 Oeste 6 Noroeste 0 1008.3 1.6 65
2019-12-04 22:00:00 13.6 4 Noroeste 9 Oeste 0 1007.9 1.8 68
2019-12-04 21:00:00 14.4 2 Sudoeste 17 Sudoeste 0 1007.3 1.7 75
2019-12-04 20:00:00 15.3 4 Oeste 26 Oeste 0 1006.7 1.4 67
2019-12-04 19:00:00 15.1 14 Oeste 37 Oeste 0 1006.1 1.5 80
2019-12-04 18:00:00 15.4 17 Oeste 40 Oeste 0 1005.6 1.2 77
2019-12-04 17:00:00 15.7 15 Oeste 41 Sudoeste 0 1005.3 0.4 77
2019-12-04 16:00:00 17 17 Oeste 37 Sudoeste 0 1004.6 -0.6 70
2019-12-04 15:00:00 16.9 17 Oeste 41 Oeste 0 1004.4 -1.5 73
2019-12-04 14:00:00 16.4 21 Oeste 40 Sudoeste 0 1004.9 -1.2 73
2019-12-04 13:00:00 16.9 17 Oeste 41 Sudoeste 0 1005.2 -1 69
2019-12-04 12:00:00 17.2 14 Oeste 30 Oeste 0 1005.9 0.4 65
2019-12-04 11:00:00 17.8 7 Oeste 24 Oeste 0 1006.1 1.1 57
2019-12-04 10:00:00 15.9 15 Oeste 30 Oeste 0 1006.2 1.2 70
2019-12-04 09:00:00 16.8 15 Noroeste 40 Oeste 0 1005.5 0.7 54
2019-12-04 08:00:00 15.3 23 Oeste 41 Oeste 0 1005 -0.3 58
2019-12-04 07:00:00 13.7 10 Noroeste 23 Oeste 0 1005 -1.3 69
2019-12-04 06:00:00 12.8 6 Oeste 14 Oeste 0 1004.8 -2.7 69
2019-12-04 05:00:00 12 2 Noroeste 13 Oeste 0 1005.3 -2.6 70
2019-12-04 04:00:00 11.8 4 Oeste 13 Noroeste 0 1006.3 -1.8 71
2019-12-04 03:00:00 12.5 5 Noroeste 15 Noroeste 0 1007.5 -1.1 69
2019-12-04 02:00:00 13 9 Noroeste 16 Noroeste 0 1007.9 -0.6 69
2019-12-04 01:00:00 12.8 4 Noroeste 8 Oeste 0 1008.1 -0.5 74
2019-12-04 00:00:00 11.5 4 Nordeste 9 Norte 0 1008.6 0.2 98
2019-12-03 23:00:00 12.4 4 Norte 6 Nordeste 0 1008.5 0.3 95
2019-12-03 22:00:00 12.9 3 Norte 7 Oeste 0 1008.6 0.5 93
2019-12-03 21:00:00 14.1 5 Noroeste 12 Noroeste 0 1008.4 1.1 90
2019-12-03 20:00:00 14.5 6 Oeste 17 Oeste 0 1008.2 1.4 90
2019-12-03 19:00:00 14.8 3 Oeste 10 Oeste 0 1008.1 1.9 89
2019-12-03 18:00:00 15.1 0 Calma 8 Noroeste 0 1007.3 1.4 83
2019-12-03 17:00:00 15.7 0 Calma 17 Oeste 0 1006.8 0.3 82
2019-12-03 16:00:00 15.4 8 Oeste 21 Oeste 0 1006.2 -0.7 83
2019-12-03 15:00:00 15.4 9 Oeste 22 Oeste 0 1005.9 -1.5 80
2019-12-03 14:00:00 14.8 14 Oeste 24 Oeste 0 1006.5 -1.5 81
2019-12-03 13:00:00 15.8 6 Oeste 21 Noroeste 0 1006.9 -1.3 68
2019-12-03 12:00:00 15.1 12 Norte 25 Norte 0 1007.4 -0.2 70
2019-12-03 11:00:00 13.2 4 Noroeste 17 Noroeste 0.7 1008 -- 90
2019-12-03 10:00:00 12.9 6 Noroeste 15 Noroeste 2.3 1008.2 1.5 87
2019-12-03 09:00:00 15.6 5 Norte 18 Norte 0 1007.6 0.9 65
2019-12-03 08:00:00 -- -- -- -- -- -- -- -- --
2019-12-03 07:00:00 12.2 2 Nordeste 11 Oeste 0 1006.7 -1.5 99
2019-12-03 06:00:00 12.3 4 Sudeste 9 Este 0 1006.7 -2.2 99
2019-12-03 05:00:00 12.8 3 Este 10 Oeste 0 1006.9 -2.4 99
2019-12-03 04:00:00 13.3 5 Oeste 13 Oeste 0.3 1008.2 -1.3 98
2019-12-03 03:00:00 12.6 0 Calma 8 Sudoeste 0.1 1008.9 -1.8 98
2019-12-03 02:00:00 13 5 Sur 7 Sur 0.1 1009.3 -1.5 98
2019-12-03 01:00:00 13.2 4 Noroeste 11 Este 1.1 1009.5 -1 95
2019-12-03 00:00:00 13.9 12 Este 27 Este 0.1 1010.7 0.8 86
2019-12-02 23:00:00 14.8 6 Este 16 Este 0 1010.8 1.1 83
2019-12-02 22:00:00 14.5 2 Este 11 Este 0 1010.5 1.7 82
2019-12-02 21:00:00 14.7 0 Calma 15 Norte 0 1009.9 1.3 81
2019-12-02 20:00:00 15.1 6 Nordeste 20 Este 0 1009.7 1.3 77
2019-12-02 19:00:00 14.8 13 Este 31 Este 0 1008.8 0.9 83
2019-12-02 18:00:00 15.1 23 Este 35 Este 0 1008.6 0.9 81
2019-12-02 17:00:00 16.1 19 Este 38 Este 0 1008.4 0.1 77
2019-12-02 16:00:00 16.6 23 Este 38 Este 0 1007.9 -1 71
2019-12-02 15:00:00 17.1 20 Este 28 Este 0 1007.7 -1.5 71
2019-12-02 14:00:00 15.6 18 Este 31 Sudeste 0 1008.3 -1.1 80
2019-12-02 13:00:00 16.5 21 Sudeste 28 Sudeste 0 1008.9 0.2 76
2019-12-02 12:00:00 17 16 Sudeste 26 Este 0 1009.2 0.7 73
2019-12-02 11:00:00 16.8 12 Sudeste 22 Sudeste 0 1009.4 1.3 70
2019-12-02 10:00:00 15.1 4 Nordeste 8 Nordeste 0 1008.7 1 81
2019-12-02 09:00:00 12 3 Norte 10 Nordeste 0 1008.5 0.5 94
2019-12-02 08:00:00 11.3 5 Este 9 Este 0 1008.1 0.1 99
2019-12-02 07:00:00 11.9 4 Nordeste 9 Norte 0.5 1007.7 -0.5 99
2019-12-02 06:00:00 11.8 3 Nordeste 11 Norte 0.1 1008 -0.6 99
2019-12-02 05:00:00 11.5 6 Nordeste 9 Nordeste 0 1008 -0.6 99
2019-12-02 04:00:00 12.3 2 Norte 9 Nordeste 0 1008.2 -0.8 99
2019-12-02 03:00:00 12.5 0 Calma 5 Sudeste 0 1008.6 -0.7 99
2019-12-02 02:00:00 13.6 2 Norte 5 Noroeste 0 1008.6 -0.9 99
2019-12-02 01:00:00 13.7 0 Calma 9 Sudoeste 0.7 1009 -0.7 99
2019-12-02 00:00:00 13.9 2 Sur 12 Norte 0 1009.3 -0.5 99
2019-12-01 23:00:00 14 2 Noroeste 6 Nordeste 4.6 1009.5 -0.4 98
2019-12-01 22:00:00 14.1 4 Nordeste 7 Nordeste 0 1009.7 -0.2 95
2019-12-01 21:00:00 14.4 3 Noroeste 22 Oeste 0.3 1009.8 0.1 93
2019-12-01 20:00:00 15.4 12 Oeste 26 Oeste 0 1009.9 0.6 81
2019-12-01 19:00:00 15.5 8 Oeste 30 Oeste 0 1009.9 -0.3 80
2019-12-01 18:00:00 15.3 14 Oeste 30 Oeste 0 1009.7 -1 81
2019-12-01 17:00:00 15.7 14 Oeste 29 Sudoeste 0 1009.3 -1.7 80
2019-12-01 16:00:00 15.9 15 Oeste 35 Sudoeste 0 1010.2 -1.3 85
2019-12-01 15:00:00 15.9 15 Oeste 38 Oeste 0 1010.7 -1.8 86
2019-12-01 14:00:00 15.9 14 Oeste 39 Sudoeste 0 1011 -2 85
2019-12-01 13:00:00 15.9 16 Oeste 37 Sudoeste 0 1011.5 -1.3 85
2019-12-01 12:00:00 16.1 13 Oeste 33 Oeste 0 1012.5 0 75
2019-12-01 11:00:00 16.3 11 Oeste 24 Oeste 0 1013 0.8 73
2019-12-01 10:00:00 16 4 Oeste 22 Oeste 0 1012.8 0.8 77
2019-12-01 09:00:00 15.8 6 Oeste 15 Oeste 0 1012.5 0.4 75
2019-12-01 08:00:00 15.6 8 Oeste 19 Noroeste 0 1012.2 -0.6 79
2019-12-01 07:00:00 15.2 13 Oeste 23 Oeste 0 1012 -1.1 81
2019-12-01 06:00:00 15.1 15 Oeste 24 Oeste 0 1012.1 -1.8 86
2019-12-01 05:00:00 13.8 8 Noroeste 20 Oeste 0 1012.8 -1.3 88
2019-12-01 04:00:00 13.8 5 Oeste 12 Oeste 0 1013.1 -1.8 92
2019-12-01 03:00:00 13.6 6 Oeste 19 Oeste 0 1013.9 -1.6 89
2019-12-01 02:00:00 13.8 9 Oeste 14 Oeste 0 1014.1 -1.6 91
2019-12-01 01:00:00 13.3 3 Noroeste 16 Oeste 0 1014.9 -1.1 98
2019-12-01 00:00:00 13.9 6 Oeste 20 Oeste 0 1015.5 -1.1 96
2019-11-30 23:00:00 13.4 12 Oeste 18 Oeste 0 1015.7 -1.3 93
2019-11-30 22:00:00 11.6 0 Calma 8 Norte 0 1016 -1 95
2019-11-30 21:00:00 12.8 0 Calma 8 Noroeste 0 1016.6 -0.2 94
2019-11-30 20:00:00 13.3 3 Norte 6 Norte 0 1017 -0.2 94
2019-11-30 19:00:00 14.5 4 Noroeste 10 Noroeste 0 1017 -0.7 96
2019-11-30 18:00:00 15.6 4 Oeste 8 Oeste 0 1016.8 -1.3 85
2019-11-30 17:00:00 16.7 5 Oeste 12 Sudoeste 0 1017.2 -1.9 77
2019-11-30 16:00:00 16.4 8 Sudoeste 13 Sudoeste 0 1017.7 -2.1 94
2019-11-30 15:00:00 17.8 5 Sur 10 Sur 0 1018.1 -2.6 86
2019-11-30 14:00:00 17.3 6 Sudoeste 11 Sudoeste 0 1019.1 -2 85
2019-11-30 13:00:00 17.9 6 Sur 10 Sur 0 1019.8 -1 77
2019-11-30 12:00:00 19 6 Sudeste 9 Sudeste 0 1020.7 0.1 73
2019-11-30 11:00:00 18 5 Sur 8 Sudeste 0 1021.1 0.8 75
2019-11-30 10:00:00 20.1 0 Calma 5 Nordeste 0 1020.8 1.3 62
2019-11-30 09:00:00 13.2 5 Nordeste 8 Nordeste 0 1020.6 1.2 80
2019-11-30 08:00:00 11 0 Calma 4 Norte 0 1020.3 0.9 89
2019-11-30 07:00:00 11.3 2 Norte 7 Norte 0 1019.5 -0.2 87
2019-11-30 06:00:00 11.8 0 Calma 5 Nordeste 0 1019.4 -0.2 83
2019-11-30 05:00:00 11.9 3 Nordeste 6 Norte 0 1019.4 -0.3 85
2019-11-30 04:00:00 11.5 0 Calma 6 Norte 0 1019.7 -0.3 86
2019-11-30 03:00:00 12.2 2 Nordeste 7 Nordeste 0 1019.6 -0.7 85
2019-11-30 02:00:00 11.7 2 Nordeste 4 Nordeste 0 1019.7 -0.5 88
2019-11-30 01:00:00 12.1 0 Calma 5 Nordeste 0 1020 0 86
2019-11-30 00:00:00 11.9 0 Calma 7 Norte 0 1020.3 0.3 89
2019-11-29 23:00:00 11.9 3 Norte 6 Nordeste 0 1020.2 0.5 88
2019-11-29 22:00:00 12.3 0 Calma 5 Nordeste 0 1020 0.6 93
2019-11-29 21:00:00 12.5 3 Nordeste 6 Nordeste 0 1020 0.9 99
2019-11-29 20:00:00 13.9 0 Calma 4 Nordeste 0 1019.7 1.1 98
2019-11-29 19:00:00 14.4 0 Calma 5 Sudoeste 0 1019.4 1 96
2019-11-29 18:00:00 15.5 5 Sudoeste 7 Sudoeste 0 1019.1 0.6 94
2019-11-29 17:00:00 17.5 0 Calma 9 Sur 0 1018.6 -0.4 89
2019-11-29 16:00:00 16.8 5 Sudoeste 10 Sudoeste 0 1018.4 -1.1 86
2019-11-29 15:00:00 17 6 Sur 14 Sudeste 0 1018.5 -1.4 89
2019-11-29 14:00:00 17 10 Sudeste 16 Sudeste 0 1019 -0.8 86
2019-11-29 13:00:00 16.7 13 Sudeste 17 Sudeste 0 1019.5 0.1 86
2019-11-29 12:00:00 17 9 Sudeste 13 Sudeste 0 1019.9 1.1 83
2019-11-29 11:00:00 18.7 5 Sur 9 Sur 0 1019.8 1.6 67
2019-11-29 10:00:00 17.9 3 Este 6 Este 0 1019.4 1.6 70
2019-11-29 09:00:00 14.2 3 Este 7 Este 0 1018.8 1.4 85
2019-11-29 08:00:00 11.1 0 Calma 6 Nordeste 0 1018.2 0.8 96
2019-11-29 07:00:00 11.8 3 Norte 6 Norte 0 1017.8 0.3 98
2019-11-29 06:00:00 12.2 0 Calma 7 Norte 0 1017.4 0.1 96
2019-11-29 05:00:00 13.7 3 Oeste 10 Sudeste 0 1017.4 0.5 91
2019-11-29 04:00:00 13.8 3 Sudeste 9 Sur 0 1017.5 0.6 93
2019-11-29 03:00:00 14.5 5 Sur 17 Nordeste 0 1017.3 0.2 89
2019-11-29 02:00:00 17 6 Norte 22 Norte 0 1016.9 0.2 63
2019-11-29 01:00:00 16.7 4 Oeste 22 Norte 0 1016.9 0 62
2019-11-29 00:00:00 15.5 3 Oeste 19 Norte 0 1017.1 0.4 71
2019-11-28 23:00:00 17.4 10 Norte 29 Norte 0 1016.7 0.4 64
2019-11-28 22:00:00 15.7 5 Oeste 9 Noroeste 0 1016.9 0.6 73
2019-11-28 21:00:00 13.7 5 Noroeste 14 Norte 0 1016.7 0.8 87
2019-11-28 20:00:00 13.7 0 Calma 10 Noroeste 0 1016.3 0.5 89
2019-11-28 19:00:00 14.8 2 Noroeste 12 Oeste 0 1016.3 0.2 84
2019-11-28 18:00:00 15.8 5 Oeste 14 Oeste 0 1015.9 -0.4 77
2019-11-28 17:00:00 17.6 6 Oeste 18 Sudoeste 0 1015.8 -1 68
2019-11-28 16:00:00 19.4 5 Sudoeste 14 Sudoeste 0 1016.1 -1.1 60
2019-11-28 15:00:00 18.2 7 Sudoeste 14 Sudoeste 0 1016.3 -1.8 68
2019-11-28 14:00:00 17.9 7 Sudoeste 13 Sudoeste 0 1016.8 -1.2 77
2019-11-28 13:00:00 17.1 9 Sur 14 Sudoeste 0 1017.2 0.1 77
2019-11-28 12:00:00 17 8 Sudoeste 16 Sudoeste 0 1018.1 1.9 76
2019-11-28 11:00:00 17.1 8 Sudoeste 18 Este 0 1018 2.3 69
2019-11-28 10:00:00 19.4 3 Nordeste 32 Norte 0 1017.1 2.2 59
2019-11-28 09:00:00 17.4 16 Norte 35 Norte 0 1016.2 1.7 59
2019-11-28 08:00:00 16.1 5 Norte 22 Norte 0 1015.7 1 64
2019-11-28 07:00:00 16.5 7 Noroeste 23 Norte 0 1014.9 0.2 64
2019-11-28 06:00:00 16.1 9 Norte 28 Norte 0 1014.5 0 65
2019-11-28 05:00:00 15.3 8 Oeste 17 Norte 0 1014.7 0.3 73
2019-11-28 04:00:00 16.7 9 Oeste 15 Oeste 0 1014.7 -0.1 62
2019-11-28 03:00:00 16.4 6 Oeste 13 Oeste 0 1014.5 0 66
2019-11-28 02:00:00 16.1 6 Noroeste 13 Noroeste 0 1014.4 -0.2 70
2019-11-28 01:00:00 15.6 2 Oeste 23 Oeste 0 1014.8 0.6 74
2019-11-28 00:00:00 17.3 12 Oeste 27 Noroeste 0 1014.5 0.4 59
2019-11-27 23:00:00 17.6 9 Noroeste 21 Noroeste 0 1014.6 1 59
2019-11-27 22:00:00 16.5 14 Oeste 22 Oeste 0 1014.2 1.4 71
2019-11-27 21:00:00 16.6 9 Oeste 24 Oeste 0 1014.1 2 74
2019-11-27 20:00:00 17.7 12 Oeste 38 Noroeste 0 1013.6 1.7 58
2019-11-27 19:00:00 19.5 18 Noroeste 42 Norte 0 1012.8 1.1 49
2019-11-27 18:00:00 20.1 15 Noroeste 35 Noroeste 0 1012.1 0.1 48
2019-11-27 17:00:00 18.8 15 Oeste 39 Oeste 0 1011.9 -0.2 70
2019-11-27 16:00:00 18.5 18 Oeste 44 Sudoeste 0 1011.7 -1.2 73
2019-11-27 15:00:00 17.2 23 Sudoeste 47 Oeste 0 1012 -1.9 83
2019-11-27 14:00:00 19 19 Oeste 40 Oeste 0 1012.1 -1.7 72
2019-11-27 06:00:00 15.9 19 Oeste 35 Oeste 0 1011 -0.5 85
2019-11-27 05:00:00 16.3 19 Oeste 35 Oeste 0 1011.1 -0.5 80
2019-11-27 04:00:00 16.3 17 Oeste 31 Oeste 0 1011.3 -0.8 77
2019-11-27 03:00:00 16.7 15 Oeste 28 Oeste 0 1011.5 -1.2 76
2019-11-27 02:00:00 16 10 Oeste 25 Oeste 0 1011.6 -1.4 77
2019-11-27 01:00:00 16.1 9 Noroeste 22 Oeste 0 1012.1 -0.7 83
2019-11-27 00:00:00 15.6 8 Noroeste 23 Oeste 0 1012.7 0 86
2019-11-26 23:00:00 15.3 9 Noroeste 20 Noroeste 0 1013 0.3 94
2019-11-26 22:00:00 15.5 6 Oeste 26 Oeste 0 1012.8 0.7 95
2019-11-26 21:00:00 16 15 Oeste 30 Oeste 0 1012.7 0.8 95
2019-11-26 20:00:00 15.8 9 Oeste 28 Oeste 0 1012.7 1.1 97
2019-11-26 19:00:00 16.8 16 Oeste 27 Oeste 0 1012.1 0.5 92
2019-11-26 18:00:00 17.2 15 Oeste 32 Oeste 0 1011.9 -0.3 90
2019-11-26 17:00:00 17.7 9 Oeste 27 Oeste 0 1011.6 -1.1 83
2019-11-26 16:00:00 19.3 10 Oeste 20 Oeste 0 1011.6 -1.9 74
2019-11-26 15:00:00 19.4 6 Oeste 13 Sudoeste 0 1012.2 -2.1 70
2019-11-26 14:00:00 19.9 5 Sudoeste 25 Sudoeste 0 1012.7 -1.8 66
2019-11-26 13:00:00 20.4 14 Sudoeste 24 Oeste 0 1013.5 -1 56
2019-11-26 12:00:00 19.3 11 Oeste 22 Oeste 0 1014.3 0 68
2019-11-26 11:00:00 21.2 8 Norte 32 Norte 0 1014.5 0.4 50
2019-11-26 10:00:00 19.8 14 Norte 32 Norte 0 1014.5 0.7 58
2019-11-26 09:00:00 19 3 Oeste 10 Oeste 0 1014.3 0.8 63
2019-11-26 08:00:00 16.4 5 Oeste 14 Noroeste 0 1014.1 0.5 70
2019-11-26 07:00:00 17.1 6 Norte 22 Noroeste 0 1013.8 -0.6 71
2019-11-26 06:00:00 17 5 Noroeste 13 Noroeste 0 1013.5 -0.6 69
2019-11-26 05:00:00 17.5 3 Noroeste 17 Norte 0 1013.6 -1.1 66
2019-11-26 04:00:00 16 9 Oeste 19 Oeste 0 1014.4 -0.7 85
2019-11-26 03:00:00 15.7 3 Sudoeste 15 Oeste 0 1014.1 -0.9 96
2019-11-26 02:00:00 15.6 4 Oeste 11 Sudoeste 0 1014.7 0.1 94
2019-11-26 01:00:00 16 6 Noroeste 21 Oeste 0 1015.1 0.6 93
2019-11-26 00:00:00 16.7 3 Oeste 24 Oeste 0 1015 0.2 86
2019-11-25 23:00:00 16.2 21 Oeste 34 Oeste 0 1014.6 0 93
2019-11-25 22:00:00 16.9 22 Oeste 36 Oeste 0 1014.5 -0.2 88
2019-11-25 21:00:00 16.9 19 Oeste 31 Oeste 0 1014.8 0.3 87
2019-11-25 20:00:00 17.4 11 Oeste 26 Oeste 0 1014.6 0.1 80
2019-11-25 19:00:00 16.6 13 Oeste 30 Oeste 0 1014.7 0.5 85
2019-11-25 18:00:00 16.1 8 Oeste 33 Oeste 0 1014.5 0.2 86
2019-11-25 17:00:00 16.9 16 Oeste 38 Oeste 0 1014.5 -0.4 77
2019-11-25 16:00:00 17.7 18 Oeste 36 Oeste 0 1014.2 -1.3 76
2019-11-25 15:00:00 17.9 17 Oeste 37 Oeste 0 1014.3 -2 77
2019-11-25 14:00:00 17.8 15 Oeste 36 Sudoeste 0 1014.9 -1.7 76
2019-11-25 13:00:00 17.4 13 Sudoeste 26 Oeste 0 1015.5 -0.8 77
2019-11-25 12:00:00 16.5 12 Sudoeste 22 Sudoeste 0 1016.3 0.7 82
2019-11-25 11:00:00 17.2 8 Sudoeste 15 Oeste 0 1016.6 1.5 74
2019-11-25 10:00:00 17.2 9 Sudeste 22 Sur 0 1016.3 1.7 68
2019-11-25 09:00:00 15.4 13 Sudeste 22 Este 0 1015.6 1.3 70
2019-11-25 08:00:00 15.2 4 Sudeste 10 Sudoeste 0 1015.1 1.3 75
2019-11-25 07:00:00 15.5 6 Sudoeste 12 Oeste 0 1014.6 0.4 66
2019-11-25 06:00:00 15.1 7 Oeste 21 Noroeste 0 1014.3 -0.1 61
2019-11-25 05:00:00 15.8 9 Noroeste 30 Norte 0 1013.8 -0.4 60
2019-11-25 04:00:00 13.5 4 Noroeste 12 Noroeste 0 1014.2 -0.8 69
2019-11-25 03:00:00 14.3 7 Oeste 18 Oeste 0 1014.4 -0.2 73
2019-11-25 02:00:00 15.6 6 Norte 27 Noroeste 0 1014.2 -1 54
2019-11-25 01:00:00 15.6 9 Noroeste 28 Noroeste 0 1015 -0.2 54
2019-11-25 00:00:00 15.5 15 Noroeste 35 Oeste 0 1014.6 -0.3 53
2019-11-24 23:00:00 15.4 8 Noroeste 25 Noroeste 0 1015.2 0.6 53
2019-11-24 22:00:00 16 14 Noroeste 29 Noroeste 0 1015.2 1.4 51
2019-11-24 21:00:00 15.9 5 Norte 37 Noroeste 0 1014.9 1.4 51
2019-11-24 20:00:00 16.3 14 Noroeste 26 Noroeste 0 1014.6 1.2 47
2019-11-24 19:00:00 15.4 5 Nordeste 23 Oeste 0 1013.8 1.1 55
2019-11-24 18:00:00 16.4 13 Oeste 33 Sudoeste 0 1013.5 0.6 56
2019-11-24 17:00:00 16.7 18 Sudoeste 51 Sudoeste 0 1013.4 0.1 54
2019-11-24 16:00:00 17.1 17 Oeste 41 Oeste 0 1012.7 -1 49
2019-11-24 15:00:00 21 6 Sudeste 15 Sudoeste 0 1012.9 -0.8 36
2019-11-24 14:00:00 20.3 5 Norte 27 Oeste 0 1013.3 -0.6 37
2019-11-24 13:00:00 17.6 8 Sudoeste 29 Norte 0 1013.7 -0.1 45
2019-11-24 12:00:00 19.9 7 Noroeste 24 Norte 0 1013.7 0.2 36
2019-11-24 11:00:00 17.6 9 Noroeste 18 Noroeste 0 1013.9 1.2 41
2019-11-24 10:00:00 16.4 9 Oeste 29 Oeste 0 1013.8 2.3 43
2019-11-24 09:00:00 15.1 9 Sudoeste 25 Noroeste 0 1013.5 1.9 46
2019-11-24 08:00:00 14.9 9 Noroeste 45 Oeste 0 1012.7 0.6 46
2019-11-24 07:00:00 15.5 32 Oeste 51 Oeste 0 1011.5 -0.4 43
2019-11-24 06:00:00 15.8 18 Noroeste 35 Noroeste 0 1011.6 0.2 43
2019-11-24 05:00:00 12.9 3 Noroeste 21 Noroeste 0 1012.1 0.1 53
2019-11-24 04:00:00 14.3 11 Oeste 27 Noroeste 0 1011.9 -0.5 50
2019-11-24 03:00:00 14 4 Noroeste 24 Oeste 0 1011.4 -1.1 50
2019-11-24 02:00:00 14.6 12 Oeste 22 Oeste 0 1012 0.1 49
2019-11-24 01:00:00 14.5 5 Noroeste 16 Oeste 0 1012.4 1.1 49
2019-11-24 00:00:00 14.7 0 Calma 22 Noroeste 0 1012.5 2.7 49
2019-11-23 23:00:00 15.6 11 Noroeste 44 Noroeste 0 1011.9 2.1 46
2019-11-23 22:00:00 15.7 15 Noroeste 49 Noroeste 0 1011.3 3 48
2019-11-23 21:00:00 16.1 28 Noroeste 50 Noroeste 0 1009.8 2.8 45
2019-11-23 20:00:00 16 15 Oeste 35 Oeste 0 1009.8 4.1 48
2019-11-23 19:00:00 16.4 17 Oeste 48 Noroeste 0 1008.3 3.1 46
2019-11-23 18:00:00 16.8 22 Noroeste 56 Oeste 0 1007 1.9 45
2019-11-23 17:00:00 17.8 28 Noroeste 53 Oeste 0 1005.7 0.5 43
2019-11-23 16:00:00 17.9 25 Noroeste 53 Noroeste 0 1005.2 -0.2 43
2019-11-23 15:00:00 18 28 Noroeste 55 Noroeste 0 1005.1 -0.4 41
2019-11-23 14:00:00 18.2 26 Noroeste 49 Noroeste 0 1005.2 0.2 43
2019-11-23 13:00:00 17.8 27 Noroeste 60 Noroeste 0 1005.4 1.2 43
2019-11-23 12:00:00 17.5 23 Oeste 55 Oeste 0 1005.5 2.8 45
2019-11-23 11:00:00 17.2 23 Noroeste 46 Noroeste 0 1005 3.2 45
2019-11-23 10:00:00 16.6 23 Noroeste 45 Noroeste 0 1004.2 3.9 50
2019-11-23 09:00:00 15.4 22 Noroeste 53 Noroeste 0 1002.7 3.5 53
2019-11-23 08:00:00 15.2 26 Noroeste 55 Oeste 0 1001.8 2.4 54
2019-11-23 07:00:00 16.1 14 Noroeste 42 Noroeste 0 1000.3 1.5 53
2019-11-23 06:00:00 16.5 16 Oeste 44 Noroeste 0 999.2 0.1 49
2019-11-23 05:00:00 15.7 6 Oeste 23 Sudoeste 0 999.4 1 53
2019-11-23 04:00:00 16.6 3 Norte 22 Norte 0 998.8 -0.2 54
2019-11-23 03:00:00 17.3 10 Oeste 35 Norte 0 999.1 0.6 53
2019-11-23 02:00:00 16.6 13 Noroeste 30 Noroeste 0 998.4 -0.5 53
2019-11-23 01:00:00 16.4 10 Noroeste 46 Noroeste 0 999 0.3 55
2019-11-23 00:00:00 16.6 17 Noroeste 51 Noroeste 0 998.5 -0.4 58
2019-11-22 23:00:00 14 8 Noroeste 22 Oeste 0.2 998.9 0 99
2019-11-22 22:00:00 15.9 16 Oeste 39 Oeste 2.5 998.7 -0.4 99
2019-11-22 21:00:00 15.9 17 Oeste 34 Oeste 2.3 998.9 -1.1 99
2019-11-22 20:00:00 16.1 10 Oeste 39 Oeste 0.2 998.9 -1.9 99
2019-11-22 19:00:00 15 3 Sudeste 15 Este 0.7 999.1 -1.8 99
2019-11-22 18:00:00 14.1 3 Nordeste 12 Oeste 0.4 1000 -1.9 99
2019-11-22 17:00:00 14.2 5 Noroeste 9 Noroeste 6.9 1000.8 -2.4 99
2019-11-22 16:00:00 14.1 3 Norte 6 Norte 6.2 1000.9 -3.5 99
2019-11-22 15:00:00 13.9 3 Nordeste 10 Este 1.1 1001.9 -3.8 99
2019-11-22 14:00:00 14.1 5 Este 11 Este 3.2 1003.2 -3.1 99
2019-11-22 13:00:00 14.3 2 Nordeste 9 Nordeste 4.2 1004.4 -2.1 99
2019-11-22 12:00:00 14.3 2 Este 10 Sudeste 3.4 1005.7 -1 99
2019-11-22 11:00:00 14.4 5 Sudeste 9 Este 3.9 1006.3 0.1 99
2019-11-22 10:00:00 14.1 2 Norte 8 Nordeste 4.6 1006.5 0.4 99
2019-11-22 09:00:00 14.1 0 Calma 9 Este 10.4 1006.7 0.3 99
2019-11-22 08:00:00 14.2 3 Norte 12 Oeste 2.9 1006.2 -0.6 99
2019-11-22 07:00:00 14.1 8 Noroeste 28 Oeste 3.1 1006.1 -1.2 99
2019-11-22 06:00:00 14.3 14 Oeste 35 Oeste 2.5 1006.4 -0.8 99
2019-11-22 05:00:00 14.6 10 Oeste 21 Oeste 1.5 1006.8 -0.7 99
2019-11-22 04:00:00 14.2 0 Calma 4 Sudeste 1.7 1007.3 -0.7 99
2019-11-22 03:00:00 14.2 0 Calma 9 Oeste 1.6 1007.2 -1.4 99
2019-11-22 02:00:00 14.5 5 Oeste 11 Noroeste 1.6 1007.5 -1.4 99
2019-11-22 01:00:00 14.1 0 Calma 4 Nordeste 0.2 1008 -1.3 99
2019-11-22 00:00:00 14.1 0 Calma 4 Sudeste 1.1 1008.6 -0.4 99
2019-11-21 23:00:00 13.9 0 Calma 5 Este 0.4 1008.9 -0.3 99
2019-11-21 22:00:00 13.9 0 Calma 6 Norte 3.8 1009.3 0.1 99
2019-11-21 21:00:00 13.8 3 Nordeste 20 Nordeste 4.7 1009 0.3 99
2019-11-21 20:00:00 14.1 5 Este 9 Este 2.7 1009.2 0.5 99
2019-11-21 19:00:00 14.2 0 Calma 10 Sudoeste 1.5 1009.2 0.6 99
2019-11-21 18:00:00 14.5 3 Sur 5 Sudoeste 0.9 1008.7 0 95
2019-11-21 17:00:00 14.9 3 Noroeste 13 Oeste 0 1008.7 -0.7 93
2019-11-21 16:00:00 15.4 4 Oeste 12 Noroeste 0 1008.6 -1.5 91
2019-11-21 15:00:00 14.9 3 Noroeste 10 Noroeste 0.1 1008.7 -2.3 99
2019-11-21 14:00:00 14.6 2 Noroeste 10 Norte 0.1 1009.4 -1.9 99
2019-11-21 13:00:00 13.6 4 Norte 8 Norte 1.7 1010.1 -0.5 99
2019-11-21 12:00:00 13.2 3 Nordeste 10 Noroeste 0.9 1011 0.4 96
2019-11-21 11:00:00 13 4 Noroeste 9 Sudoeste 0.7 1011.3 1.1 95
2019-11-21 10:00:00 13.5 0 Calma 6 Norte 0 1010.6 0.7 94
2019-11-21 09:00:00 12.3 0 Calma 7 Nordeste 0 1010.6 0.9 94
2019-11-21 08:00:00 -- -- -- -- -- -- -- -- --
2019-11-21 07:00:00 -- -- -- -- -- -- -- -- --
2019-11-21 06:00:00 -- -- -- -- -- -- -- -- --
2019-11-21 05:00:00 -- -- -- -- -- -- -- -- --
2019-11-21 04:00:00 -- -- -- -- -- -- -- -- --
2019-11-21 03:00:00 -- -- -- -- -- -- -- -- --
2019-11-21 02:00:00 -- -- -- -- -- -- -- -- --
2019-11-21 01:00:00 -- -- -- -- -- -- -- -- --
2019-11-21 00:00:00 -- -- -- -- -- -- -- -- --
2019-11-20 23:00:00 -- -- -- -- -- -- -- -- --
2019-11-20 22:00:00 13.2 4 Oeste 12 Oeste 0 1011 0.8 93
2019-11-20 21:00:00 12.6 5 Noroeste 12 Oeste 0.1 1010.9 0.5 95
2019-11-20 20:00:00 13.4 9 Sudoeste 17 Sudoeste 0.1 1010.9 0.6 91
2019-11-20 19:00:00 13.8 4 Oeste 10 Oeste 0 1010.2 0.4 86
2019-11-20 18:00:00 14 4 Oeste 9 Noroeste 0 1010.4 -0.4 85
2019-11-20 17:00:00 14.1 3 Noroeste 7 Oeste 0 1010.3 -0.7 86
2019-11-20 16:00:00 13.2 4 Este 10 Oeste 0.2 1009.8 -1.7 94
2019-11-20 15:00:00 12.7 7 Oeste 26 Oeste 0 1010.8 -1.3 93
2019-11-20 14:00:00 13.4 10 Sudoeste 25 Sudoeste 0 1011 -1.6 88
2019-11-20 13:00:00 14.7 6 Sudoeste 10 Sur 0 1011.5 -1.3 71
2019-11-20 12:00:00 16.5 5 Sur 9 Sur 0 1012.1 -0.6 62
2019-11-20 11:00:00 16.1 5 Sur 7 Sur 0 1012.6 0.4 56
2019-11-20 10:00:00 16.6 0 Calma 3 Norte 0 1012.8 0.9 57
2019-11-20 09:00:00 12.7 0 Calma 5 Nordeste 0 1012.7 0.6 66
2019-11-20 08:00:00 10.2 4 Nordeste 9 Norte 0 1012.2 -0.2 69
2019-11-20 07:00:00 9.9 4 Nordeste 8 Norte 0 1011.9 -1 70
2019-11-20 06:00:00 10.7 2 Nordeste 5 Norte 0 1012.1 -0.9 70
2019-11-20 05:00:00 11.5 3 Noroeste 9 Norte 0 1012.4 -0.6 73
2019-11-20 04:00:00 11.6 5 Nordeste 9 Norte 0 1012.9 -0.8 70
2019-11-20 03:00:00 12 4 Norte 6 Norte 0 1013 -0.7 74
2019-11-20 02:00:00 12.2 4 Sudeste 9 Sudeste 0 1013 -1.5 71
2019-11-20 01:00:00 12.1 0 Calma 6 Sudoeste 0 1013.7 -0.8 71
2019-11-20 00:00:00 12 0 Calma 6 Este 0 1013.7 -1 70
2019-11-19 23:00:00 11.8 0 Calma 5 Este 0 1014.5 -0.4 73
2019-11-19 22:00:00 11.8 3 Norte 7 Nordeste 0 1014.5 -0.3 71
2019-11-19 21:00:00 11.3 4 Norte 9 Nordeste 0 1014.7 0.2 75
2019-11-19 20:00:00 11.8 3 Nordeste 6 Nordeste 0 1014.9 0.5 77
2019-11-19 19:00:00 13.5 2 Norte 6 Oeste 0 1014.8 0.1 77
2019-11-19 18:00:00 14.1 0 Calma 12 Sudoeste 0 1014.5 -0.5 70
2019-11-19 17:00:00 14.9 6 Sudoeste 12 Sudoeste 0 1014.4 -1.1 66
2019-11-19 16:00:00 15.4 5 Sudoeste 12 Sudoeste 0 1014.7 -1.2 64
2019-11-19 15:00:00 15.6 8 Sudoeste 17 Sudoeste 0 1015 -1.8 65
2019-11-19 14:00:00 15.4 7 Sudoeste 18 Sudoeste 0 1015.5 -1.7 64
2019-11-19 13:00:00 15.3 10 Sudoeste 18 Sudoeste 0 1015.9 -1.3 58
2019-11-19 12:00:00 16.6 8 Oeste 17 Oeste 0 1016.8 -0.4 48
2019-11-19 11:00:00 19.4 0 Calma 11 Norte 0 1017.2 0.3 43
2019-11-19 10:00:00 15.6 6 Norte 14 Norte 0 1017.2 0.8 49
2019-11-19 09:00:00 13.6 2 Noroeste 14 Norte 0 1017.2 1 51
2019-11-19 08:00:00 12.2 3 Norte 16 Norte 0 1016.9 1.1 53
2019-11-19 07:00:00 13.2 7 Norte 14 Norte 0 1016.4 0.5 51
2019-11-19 06:00:00 13 5 Norte 25 Norte 0 1016.2 0.3 50
2019-11-19 05:00:00 13.7 12 Norte 30 Norte 0 1015.8 -0.1 49
2019-11-19 04:00:00 13.5 13 Norte 27 Norte 0 1015.9 -0.4 49
2019-11-19 03:00:00 13.8 15 Norte 27 Norte 0 1015.9 0 48
2019-11-19 02:00:00 14 14 Norte 27 Norte 0 1015.9 0 46
2019-11-19 01:00:00 14.3 13 Norte 23 Nordeste 0 1016.3 1 45
2019-11-19 00:00:00 14.3 10 Norte 23 Norte 0 1015.9 1.3 45
2019-11-18 23:00:00 14.6 9 Norte 25 Norte 0 1015.9 2 45
2019-11-18 22:00:00 14.7 9 Norte 26 Norte 0 1015.3 2.5 46
2019-11-18 21:00:00 15.3 9 Norte 23 Noroeste 0 1014.6 2.9 43
2019-11-18 20:00:00 15.1 3 Noroeste 15 Noroeste 0 1013.9 2.6 46
2019-11-18 19:00:00 15.7 4 Nordeste 18 Noroeste 0 1012.8 -- 46
2019-11-18 18:00:00 17 7 Norte 22 Noroeste 0 1011.7 1.4 45
2019-11-18 17:00:00 19.3 5 Noroeste 19 Noroeste 0 1011.3 1.3 43
2019-11-18 16:00:00 -- 0 Calma 24 Sudeste 0 -- -- --
2019-11-18 15:00:00 17.2 18 Sudeste 25 Sudeste 0 1010.3 0.5 64
2019-11-18 14:00:00 17.9 16 Sudeste 26 Noroeste 0 1010 0.5 61
2019-11-18 13:00:00 19.7 11 Noroeste 30 Noroeste 0 1009.9 1.3 41
2019-11-18 12:00:00 18.3 10 Noroeste 41 Norte 0 1009.8 0.9 47
2019-11-18 11:00:00 17 18 Norte 44 Oeste 0 1009.5 1.3 48
2019-11-18 10:00:00 15.3 29 Oeste 47 Oeste 0 1008.6 0.5 50
2019-11-18 09:00:00 15.5 19 Noroeste 40 Noroeste 0 1008.9 1.2 51
2019-11-18 08:00:00 14.4 13 Noroeste 30 Noroeste 0 1008.2 0.4 70
2019-11-18 07:00:00 13.5 5 Noroeste 19 Oeste 0 1008.1 -0.9 95
2019-11-18 06:00:00 14.2 4 Oeste 23 Oeste 0 1007.7 -1.8 94
2019-11-18 05:00:00 14.3 8 Oeste 22 Oeste 0 1007.8 -2.2 96
2019-11-18 04:00:00 14.5 7 Oeste 38 Sudoeste 0 1009 -1.8 99
2019-11-18 03:00:00 14.5 14 Oeste 36 Oeste 0 1009.5 -2 99
2019-11-18 02:00:00 14.6 21 Oeste 49 Oeste 0 1010 -2.2 95
2019-11-18 01:00:00 14.3 13 Oeste 37 Sudoeste 0 1010.8 -2.2 97
2019-11-18 00:00:00 14.3 16 Oeste 39 Sudoeste 0 1011.5 -2 98
2019-11-17 23:00:00 14.4 16 Oeste 44 Oeste 0 1012.2 -2 97
2019-11-17 22:00:00 14.3 22 Oeste 67 Oeste 0 1013 -1.3 98
2019-11-17 21:00:00 14.6 17 Oeste 38 Sudoeste 0 1013.5 -0.8 90
2019-11-17 20:00:00 14.4 19 Oeste 46 Oeste 0 1014.2 0 93
2019-11-17 19:00:00 14.5 21 Sudoeste 39 Oeste 0 1014.3 -0.3 90
2019-11-17 18:00:00 14.7 19 Oeste 48 Oeste 0 1014.3 -0.7 88
2019-11-17 17:00:00 14.7 19 Oeste 42 Oeste 0 1014.2 -1 85
2019-11-17 16:00:00 15 14 Oeste 36 Oeste 0 1014.6 -1.6 76
2019-11-17 15:00:00 15 18 Sudoeste 44 Sudoeste 0 1015 -2 65
2019-11-17 14:00:00 15.4 19 Sudoeste 38 Sudoeste 0 1015.2 -2.2 62
2019-11-17 13:00:00 15.3 19 Sudoeste 42 Sudoeste 0 1016.2 -1.1 64
2019-11-17 12:00:00 14.9 19 Sudoeste 31 Oeste 0 1017 -0.1 57
2019-11-17 11:00:00 14.5 17 Sudoeste 33 Sudoeste 0 1017.4 0.8 54
2019-11-17 10:00:00 15 8 Oeste 23 Oeste 0 1017.3 1 50
2019-11-17 09:00:00 13.5 10 Oeste 21 Sudoeste 0 1017.1 1 53
2019-11-17 08:00:00 13.1 13 Oeste 26 Noroeste 0 1016.6 0.6 49
2019-11-17 07:00:00 12.2 11 Oeste 37 Noroeste 0 1016.3 0 50
2019-11-17 06:00:00 14.2 23 Noroeste 45 Noroeste 0 1016.1 -0.2 47
2019-11-17 05:00:00 13.8 23 Noroeste 44 Noroeste 0 1016 -0.2 48
2019-11-17 04:00:00 12 3 Sudoeste 8 Sudoeste 0 1016.3 -0.1 51
2019-11-17 03:00:00 11.8 2 Noroeste 19 Norte 0 1016.3 -0.1 51
2019-11-17 02:00:00 12 13 Norte 25 Norte 0 1016.2 0 51
2019-11-17 01:00:00 12.2 9 Norte 26 Norte 0 1016.4 0.5 50
2019-11-17 00:00:00 13 7 Oeste 31 Noroeste 0 1016.4 1.2 49
2019-11-16 23:00:00 13.5 9 Oeste 31 Noroeste 0 1016.2 1.9 48
2019-11-16 22:00:00 13.7 11 Noroeste 28 Noroeste 0 1015.9 2 46
2019-11-16 21:00:00 13.9 11 Norte 50 Norte 0 1015.2 1.9 46
2019-11-16 20:00:00 14.5 20 Noroeste 46 Noroeste 0 1014.3 1.7 45
2019-11-16 19:00:00 15.2 16 Noroeste 43 Noroeste 0 1013.9 1.7 43
2019-11-16 18:00:00 15.8 18 Noroeste 36 Noroeste 0 1013.3 0.7 43
2019-11-16 17:00:00 16.9 17 Noroeste 39 Oeste 0 1012.6 0 43
2019-11-16 16:00:00 15.4 18 Sudoeste 39 Oeste 0 1012.2 -0.6 57
2019-11-16 15:00:00 15.1 17 Oeste 44 Sudoeste 0 1012.6 -0.6 55
2019-11-16 14:00:00 15.2 13 Sudoeste 31 Oeste 0 1012.6 -0.3 55
2019-11-16 13:00:00 14 21 Sudoeste 37 Oeste 0 1012.8 0.4 56
2019-11-16 12:00:00 14.6 13 Sudoeste 27 Sudoeste 0 1013.2 2 49
2019-11-16 11:00:00 15.3 11 Noroeste 23 Noroeste 0 1012.9 2.5 43
2019-11-16 10:00:00 14.2 10 Norte 32 Noroeste 0 1012.4 2.8 48
2019-11-16 09:00:00 11.7 15 Norte 28 Norte 0 1011.2 2.2 53
2019-11-16 08:00:00 10.5 16 Norte 35 Norte 0 1010.4 2 56
2019-11-16 07:00:00 9.9 5 Norte 19 Norte 0 1009.6 1.5 57
2019-11-16 06:00:00 10.2 3 Noroeste 15 Noroeste 0 1009 1.3 55
2019-11-16 05:00:00 11.1 4 Oeste 15 Sudoeste 0 1008.4 0.6 55
2019-11-16 04:00:00 11 0 Calma 16 Noroeste 0 1008.1 0.4 55
2019-11-16 03:00:00 11.1 5 Noroeste 18 Noroeste 0 1007.7 0.2 55
2019-11-16 02:00:00 11.2 8 Noroeste 18 Oeste 0 1007.8 1 54
2019-11-16 01:00:00 11.6 8 Oeste 15 Oeste 0 1007.7 1.2 53
2019-11-16 00:00:00 11.2 4 Noroeste 27 Norte 0 1007.5 1.8 53